sensor_id;sensor_type;location;lat;lon;timestamp;pressure;altitude;pressure_sealevel;temperature;humidity
15914;BME280;8055;51.930;8.840;2023-04-07T00:00:52;76331.69;;;-145.72;91.23
15914;BME280;8055;51.930;8.840;2023-04-07T00:03:17;76337.91;;;-145.72;92.39
15914;BME280;8055;51.930;8.840;2023-04-07T00:05:43;76350.31;;;-145.72;93.73
15914;BME280;8055;51.930;8.840;2023-04-07T00:08:08;76350.31;;;-145.72;91.98
15914;BME280;8055;51.930;8.840;2023-04-07T00:10:34;76356.53;;;-145.72;93.78
15914;BME280;8055;51.930;8.840;2023-04-07T00:12:59;76362.72;;;-145.72;94.94
15914;BME280;8055;51.930;8.840;2023-04-07T00:15:25;76356.53;;;-145.72;92.76
15914;BME280;8055;51.930;8.840;2023-04-07T00:17:51;76358.59;;;-145.72;95.90
15914;BME280;8055;51.930;8.840;2023-04-07T00:20:16;76364.81;;;-145.72;96.53
15914;BME280;8055;51.930;8.840;2023-04-07T00:22:41;76352.38;;;-145.72;93.03
15914;BME280;8055;51.930;8.840;2023-04-07T00:25:07;76358.59;;;-145.72;92.73
15914;BME280;8055;51.930;8.840;2023-04-07T00:27:33;76350.31;;;-145.72;92.13
15914;BME280;8055;51.930;8.840;2023-04-07T00:29:58;76352.38;;;-145.72;94.95
15914;BME280;8055;51.930;8.840;2023-04-07T00:32:24;76364.81;;;-145.72;95.26
15914;BME280;8055;51.930;8.840;2023-04-07T00:34:49;76364.81;;;-145.72;93.23
15914;BME280;8055;51.930;8.840;2023-04-07T00:37:15;76362.72;;;-145.72;95.38
15914;BME280;8055;51.930;8.840;2023-04-07T00:39:40;76366.88;;;-145.72;93.49
15914;BME280;8055;51.930;8.840;2023-04-07T00:42:06;76362.72;;;-145.72;91.57
15914;BME280;8055;51.930;8.840;2023-04-07T00:44:32;76358.59;;;-145.72;94.16
15914;BME280;8055;51.930;8.840;2023-04-07T00:46:57;76371.00;;;-145.72;96.56
15914;BME280;8055;51.930;8.840;2023-04-07T00:49:23;76371.00;;;-145.72;94.84
15914;BME280;8055;51.930;8.840;2023-04-07T00:51:48;76373.09;;;-145.72;95.01
15914;BME280;8055;51.930;8.840;2023-04-07T00:54:14;76366.88;;;-145.72;96.05
15914;BME280;8055;51.930;8.840;2023-04-07T00:56:39;76366.88;;;-145.72;97.47
15914;BME280;8055;51.930;8.840;2023-04-07T00:59:05;76371.00;;;-145.72;96.05
15914;BME280;8055;51.930;8.840;2023-04-07T01:01:45;76360.66;;;-145.72;96.59
15914;BME280;8055;51.930;8.840;2023-04-07T01:04:26;76362.72;;;-145.72;96.09
15914;BME280;8055;51.930;8.840;2023-04-07T01:06:56;76366.88;;;-145.72;99.06
15914;BME280;8055;51.930;8.840;2023-04-07T01:09:26;76366.88;;;-145.72;99.36
15914;BME280;8055;51.930;8.840;2023-04-07T01:14:32;76362.72;;;-145.72;100.00
15914;BME280;8055;51.930;8.840;2023-04-07T01:16:59;76368.94;;;-145.72;100.00
15914;BME280;8055;51.930;8.840;2023-04-07T01:22:22;76371.00;;;-145.72;100.00
15914;BME280;8055;51.930;8.840;2023-04-07T01:30:22;76375.16;;;-145.72;100.00
15914;BME280;8055;51.930;8.840;2023-04-07T01:32:51;76379.28;;;-145.72;100.00
15914;BME280;8055;51.930;8.840;2023-04-07T01:35:18;76377.22;;;-145.72;100.00
15914;BME280;8055;51.930;8.840;2023-04-07T01:37:45;76383.44;;;-145.72;100.00
15914;BME280;8055;51.930;8.840;2023-04-07T01:40:13;76381.34;;;-145.72;100.00
15914;BME280;8055;51.930;8.840;2023-04-07T01:42:40;76375.16;;;-145.72;100.00
15914;BME280;8055;51.930;8.840;2023-04-07T01:45:07;76385.50;;;-145.72;100.00
15914;BME280;8055;51.930;8.840;2023-04-07T01:47:34;76387.56;;;-145.72;100.00
15914;BME280;8055;51.930;8.840;2023-04-07T01:50:02;76391.72;;;-145.72;100.00
15914;BME280;8055;51.930;8.840;2023-04-07T01:52:32;76389.63;;;-145.72;100.00
15914;BME280;8055;51.930;8.840;2023-04-07T01:54:59;76391.72;;;-145.72;100.00
15914;BME280;8055;51.930;8.840;2023-04-07T01:57:25;76391.72;;;-145.72;100.00
15914;BME280;8055;51.930;8.840;2023-04-07T01:59:50;76400.00;;;-145.72;100.00
15914;BME280;8055;51.930;8.840;2023-04-07T02:02:15;76400.00;;;-145.72;100.00
15914;BME280;8055;51.930;8.840;2023-04-07T02:04:51;76389.63;;;-145.72;100.00
15914;BME280;8055;51.930;8.840;2023-04-07T02:07:21;76395.84;;;-145.72;100.00
15914;BME280;8055;51.930;8.840;2023-04-07T02:09:49;76397.91;;;-145.72;100.00
15914;BME280;8055;51.930;8.840;2023-04-07T02:12:15;76406.19;;;-145.72;100.00
15914;BME280;8055;51.930;8.840;2023-04-07T02:14:42;76400.00;;;-145.72;100.00
15914;BME280;8055;51.930;8.840;2023-04-07T02:17:08;76410.34;;;-145.72;100.00
15914;BME280;8055;51.930;8.840;2023-04-07T02:19:34;76406.19;;;-145.72;100.00
15914;BME280;8055;51.930;8.840;2023-04-07T02:22:02;76410.34;;;-145.72;100.00
15914;BME280;8055;51.930;8.840;2023-04-07T02:24:28;76416.53;;;-145.72;100.00
15914;BME280;8055;51.930;8.840;2023-04-07T02:26:54;76412.41;;;-145.72;100.00
15914;BME280;8055;51.930;8.840;2023-04-07T02:29:20;76416.53;;;-145.72;100.00
15914;BME280;8055;51.930;8.840;2023-04-07T02:31:45;76416.53;;;-145.72;100.00
15914;BME280;8055;51.930;8.840;2023-04-07T02:34:11;76424.81;;;-145.72;100.00
15914;BME280;8055;51.930;8.840;2023-04-07T02:36:36;76428.97;;;-145.72;100.00
15914;BME280;8055;51.930;8.840;2023-04-07T02:39:02;76431.03;;;-145.72;100.00
15914;BME280;8055;51.930;8.840;2023-04-07T02:41:27;76433.09;;;-145.72;100.00
15914;BME280;8055;51.930;8.840;2023-04-07T02:43:53;76435.16;;;-145.72;100.00
15914;BME280;8055;51.930;8.840;2023-04-07T02:46:18;76439.31;;;-145.72;100.00
15914;BME280;8055;51.930;8.840;2023-04-07T02:48:44;76439.31;;;-145.72;100.00
15914;BME280;8055;51.930;8.840;2023-04-07T02:51:09;76439.31;;;-145.72;100.00
15914;BME280;8055;51.930;8.840;2023-04-07T02:53:35;76441.38;;;-145.72;100.00
15914;BME280;8055;51.930;8.840;2023-04-07T02:56:00;76441.38;;;-145.72;100.00
15914;BME280;8055;51.930;8.840;2023-04-07T02:58:26;76451.72;;;-145.72;100.00
15914;BME280;8055;51.930;8.840;2023-04-07T03:00:51;76451.72;;;-145.72;100.00
15914;BME280;8055;51.930;8.840;2023-04-07T03:03:17;76449.66;;;-145.72;100.00
15914;BME280;8055;51.930;8.840;2023-04-07T03:05:42;76455.88;;;-145.72;100.00
15914;BME280;8055;51.930;8.840;2023-04-07T03:08:07;76451.72;;;-145.72;100.00
15914;BME280;8055;51.930;8.840;2023-04-07T03:10:33;76453.78;;;-145.72;100.00
15914;BME280;8055;51.930;8.840;2023-04-07T03:12:58;76460.00;;;-145.72;100.00
15914;BME280;8055;51.930;8.840;2023-04-07T03:15:24;76462.06;;;-145.72;100.00
15914;BME280;8055;51.930;8.840;2023-04-07T03:17:49;76462.06;;;-145.72;100.00
15914;BME280;8055;51.930;8.840;2023-04-07T03:20:15;76462.06;;;-145.72;100.00
15914;BME280;8055;51.930;8.840;2023-04-07T03:22:41;76466.22;;;-145.72;100.00
15914;BME280;8055;51.930;8.840;2023-04-07T03:25:07;76476.56;;;-145.72;100.00
15914;BME280;8055;51.930;8.840;2023-04-07T03:27:32;76478.63;;;-145.72;100.00
15914;BME280;8055;51.930;8.840;2023-04-07T03:29:58;76472.41;;;-145.72;100.00
15914;BME280;8055;51.930;8.840;2023-04-07T03:32:23;76468.28;;;-145.72;100.00
15914;BME280;8055;51.930;8.840;2023-04-07T03:34:48;76478.63;;;-145.72;100.00
15914;BME280;8055;51.930;8.840;2023-04-07T03:37:14;76474.50;;;-145.72;100.00
15914;BME280;8055;51.930;8.840;2023-04-07T03:39:39;76478.63;;;-145.72;100.00
15914;BME280;8055;51.930;8.840;2023-04-07T03:42:05;76474.50;;;-145.72;100.00
15914;BME280;8055;51.930;8.840;2023-04-07T03:44:30;76480.69;;;-145.72;100.00
15914;BME280;8055;51.930;8.840;2023-04-07T03:46:56;76482.78;;;-145.72;100.00
15914;BME280;8055;51.930;8.840;2023-04-07T03:49:22;76480.69;;;-145.72;100.00
15914;BME280;8055;51.930;8.840;2023-04-07T03:51:47;76482.78;;;-145.72;100.00
15914;BME280;8055;51.930;8.840;2023-04-07T03:54:12;76486.91;;;-145.72;100.00
15914;BME280;8055;51.930;8.840;2023-04-07T03:56:38;76484.84;;;-145.72;100.00
15914;BME280;8055;51.930;8.840;2023-04-07T03:59:03;76482.78;;;-145.72;100.00
15914;BME280;8055;51.930;8.840;2023-04-07T04:01:29;76478.63;;;-145.72;100.00
15914;BME280;8055;51.930;8.840;2023-04-07T04:03:55;76484.84;;;-145.72;100.00
15914;BME280;8055;51.930;8.840;2023-04-07T04:06:21;76491.03;;;-145.72;100.00
15914;BME280;8055;51.930;8.840;2023-04-07T04:08:46;76497.25;;;-145.72;100.00
15914;BME280;8055;51.930;8.840;2023-04-07T04:11:11;76495.19;;;-145.72;100.00
15914;BME280;8055;51.930;8.840;2023-04-07T04:13:37;76495.19;;;-145.72;100.00
15914;BME280;8055;51.930;8.840;2023-04-07T04:16:03;76501.41;;;-145.72;100.00
15914;BME280;8055;51.930;8.840;2023-04-07T04:18:28;76499.31;;;-145.72;100.00
15914;BME280;8055;51.930;8.840;2023-04-07T04:20:54;76497.25;;;-145.72;100.00
15914;BME280;8055;51.930;8.840;2023-04-07T04:23:19;76495.19;;;-145.72;100.00
15914;BME280;8055;51.930;8.840;2023-04-07T04:25:44;76505.53;;;-145.72;100.00
15914;BME280;8055;51.930;8.840;2023-04-07T04:28:10;76499.31;;;-145.72;100.00
15914;BME280;8055;51.930;8.840;2023-04-07T04:30:35;76495.19;;;-145.72;100.00
15914;BME280;8055;51.930;8.840;2023-04-07T04:33:01;76503.47;;;-145.72;100.00
15914;BME280;8055;51.930;8.840;2023-04-07T04:35:27;76515.88;;;-145.72;100.00
15914;BME280;8055;51.930;8.840;2023-04-07T04:37:52;76513.81;;;-145.72;100.00
15914;BME280;8055;51.930;8.840;2023-04-07T04:40:18;76507.59;;;-145.72;100.00
15914;BME280;8055;51.930;8.840;2023-04-07T04:42:43;76511.75;;;-145.72;100.00
15914;BME280;8055;51.930;8.840;2023-04-07T04:45:09;76507.59;;;-145.72;100.00
15914;BME280;8055;51.930;8.840;2023-04-07T04:47:34;76515.88;;;-145.72;100.00
15914;BME280;8055;51.930;8.840;2023-04-07T04:50:00;76520.03;;;-145.72;100.00
15914;BME280;8055;51.930;8.840;2023-04-07T04:52:25;76520.03;;;-145.72;100.00
15914;BME280;8055;51.930;8.840;2023-04-07T04:54:51;76517.97;;;-145.72;100.00
15914;BME280;8055;51.930;8.840;2023-04-07T04:57:16;76517.97;;;-145.72;100.00
15914;BME280;8055;51.930;8.840;2023-04-07T04:59:42;76520.03;;;-145.72;100.00
15914;BME280;8055;51.930;8.840;2023-04-07T05:02:07;76520.03;;;-145.72;100.00
15914;BME280;8055;51.930;8.840;2023-04-07T05:04:32;76520.03;;;-145.72;100.00
15914;BME280;8055;51.930;8.840;2023-04-07T05:06:58;76515.88;;;-145.72;100.00
15914;BME280;8055;51.930;8.840;2023-04-07T05:09:23;76515.88;;;-145.72;100.00
15914;BME280;8055;51.930;8.840;2023-04-07T05:11:49;76517.97;;;-145.72;100.00
15914;BME280;8055;51.930;8.840;2023-04-07T05:14:14;76511.75;;;-145.72;100.00
15914;BME280;8055;51.930;8.840;2023-04-07T05:16:39;76513.81;;;-145.72;100.00
15914;BME280;8055;51.930;8.840;2023-04-07T05:19:05;76515.88;;;-145.72;100.00
15914;BME280;8055;51.930;8.840;2023-04-07T05:21:30;76517.97;;;-145.72;100.00
15914;BME280;8055;51.930;8.840;2023-04-07T05:23:56;76515.88;;;-145.72;100.00
15914;BME280;8055;51.930;8.840;2023-04-07T05:26:21;76509.69;;;-145.72;100.00
15914;BME280;8055;51.930;8.840;2023-04-07T05:28:46;76503.47;;;-145.72;100.00
15914;BME280;8055;51.930;8.840;2023-04-07T05:31:12;76507.59;;;-145.72;100.00
15914;BME280;8055;51.930;8.840;2023-04-07T05:33:37;76509.69;;;-145.72;100.00
15914;BME280;8055;51.930;8.840;2023-04-07T05:36:03;76501.41;;;-145.72;100.00
15914;BME280;8055;51.930;8.840;2023-04-07T05:38:28;76497.25;;;-145.72;100.00
15914;BME280;8055;51.930;8.840;2023-04-07T05:40:54;76491.03;;;-145.72;100.00
15914;BME280;8055;51.930;8.840;2023-04-07T05:43:19;76499.31;;;-145.72;100.00
15914;BME280;8055;51.930;8.840;2023-04-07T05:45:45;76495.19;;;-145.72;100.00
15914;BME280;8055;51.930;8.840;2023-04-07T05:48:10;76493.13;;;-145.72;100.00
15914;BME280;8055;51.930;8.840;2023-04-07T05:50:35;76493.13;;;-145.72;100.00
15914;BME280;8055;51.930;8.840;2023-04-07T05:53:01;76488.97;;;-145.72;100.00
15914;BME280;8055;51.930;8.840;2023-04-07T05:55:26;76491.03;;;-145.72;100.00
15914;BME280;8055;51.930;8.840;2023-04-07T05:57:52;76493.13;;;-145.72;100.00
15914;BME280;8055;51.930;8.840;2023-04-07T06:00:18;76488.97;;;-145.72;100.00
15914;BME280;8055;51.930;8.840;2023-04-07T06:02:44;76478.63;;;-145.72;100.00
15914;BME280;8055;51.930;8.840;2023-04-07T06:05:09;76478.63;;;-145.72;100.00
15914;BME280;8055;51.930;8.840;2023-04-07T06:07:35;76474.50;;;-145.72;100.00
15914;BME280;8055;51.930;8.840;2023-04-07T06:10:00;76474.50;;;-145.72;100.00
15914;BME280;8055;51.930;8.840;2023-04-07T06:12:26;76464.16;;;-145.72;100.00
15914;BME280;8055;51.930;8.840;2023-04-07T06:14:52;76460.00;;;-145.72;100.00
15914;BME280;8055;51.930;8.840;2023-04-07T06:17:18;76462.06;;;-145.72;100.00
15914;BME280;8055;51.930;8.840;2023-04-07T06:19:44;76462.06;;;-145.72;100.00
15914;BME280;8055;51.930;8.840;2023-04-07T06:22:09;76457.94;;;-145.72;100.00
15914;BME280;8055;51.930;8.840;2023-04-07T06:24:35;76451.72;;;-145.72;100.00
15914;BME280;8055;51.930;8.840;2023-04-07T06:27:01;76460.00;;;-145.72;100.00
15914;BME280;8055;51.930;8.840;2023-04-07T06:29:28;76457.94;;;-145.72;100.00
15914;BME280;8055;51.930;8.840;2023-04-07T06:31:53;76447.59;;;-145.72;100.00
15914;BME280;8055;51.930;8.840;2023-04-07T06:34:19;76435.16;;;-145.72;100.00
15914;BME280;8055;51.930;8.840;2023-04-07T06:36:45;76428.97;;;-145.72;100.00
15914;BME280;8055;51.930;8.840;2023-04-07T06:39:10;76422.75;;;-145.72;100.00
15914;BME280;8055;51.930;8.840;2023-04-07T06:41:36;76424.81;;;-145.72;100.00
15914;BME280;8055;51.930;8.840;2023-04-07T06:44:03;76420.69;;;-145.72;100.00
15914;BME280;8055;51.930;8.840;2023-04-07T06:46:29;76416.53;;;-145.72;100.00
15914;BME280;8055;51.930;8.840;2023-04-07T06:48:55;76408.25;;;-145.72;100.00
15914;BME280;8055;51.930;8.840;2023-04-07T06:51:20;76408.25;;;-145.72;100.00
15914;BME280;8055;51.930;8.840;2023-04-07T06:53:46;76408.25;;;-145.72;100.00
15914;BME280;8055;51.930;8.840;2023-04-07T06:56:13;76406.19;;;-145.72;100.00
15914;BME280;8055;51.930;8.840;2023-04-07T06:58:38;76416.53;;;-145.72;100.00
15914;BME280;8055;51.930;8.840;2023-04-07T07:01:05;76414.47;;;-145.72;100.00
15914;BME280;8055;51.930;8.840;2023-04-07T07:03:31;76406.19;;;-145.72;100.00
15914;BME280;8055;51.930;8.840;2023-04-07T07:05:57;76404.13;;;-145.72;100.00
15914;BME280;8055;51.930;8.840;2023-04-07T07:08:23;76410.34;;;-145.72;100.00
15914;BME280;8055;51.930;8.840;2023-04-07T07:10:48;76408.25;;;-145.72;100.00
15914;BME280;8055;51.930;8.840;2023-04-07T07:13:14;76395.84;;;-145.72;100.00
15914;BME280;8055;51.930;8.840;2023-04-07T07:15:39;76391.72;;;-145.72;100.00
15914;BME280;8055;51.930;8.840;2023-04-07T07:18:04;76393.78;;;-145.72;100.00
15914;BME280;8055;51.930;8.840;2023-04-07T07:20:30;76395.84;;;-145.72;100.00
15914;BME280;8055;51.930;8.840;2023-04-07T07:22:55;76381.34;;;-145.72;100.00
15914;BME280;8055;51.930;8.840;2023-04-07T07:25:21;76391.72;;;-145.72;100.00
15914;BME280;8055;51.930;8.840;2023-04-07T07:27:46;76387.56;;;-145.72;100.00
15914;BME280;8055;51.930;8.840;2023-04-07T07:30:16;76379.28;;;-145.72;100.00
15914;BME280;8055;51.930;8.840;2023-04-07T07:32:41;76379.28;;;-145.72;100.00
15914;BME280;8055;51.930;8.840;2023-04-07T07:35:07;76371.00;;;-145.72;100.00
15914;BME280;8055;51.930;8.840;2023-04-07T07:37:32;76364.81;;;-145.72;100.00
15914;BME280;8055;51.930;8.840;2023-04-07T07:39:57;76368.94;;;-145.72;100.00
15914;BME280;8055;51.930;8.840;2023-04-07T07:42:23;76366.88;;;-145.72;100.00
15914;BME280;8055;51.930;8.840;2023-04-07T07:44:48;76360.66;;;-145.72;100.00
15914;BME280;8055;51.930;8.840;2023-04-07T07:47:14;76362.72;;;-145.72;100.00
15914;BME280;8055;51.930;8.840;2023-04-07T07:49:39;76362.72;;;-145.72;100.00
15914;BME280;8055;51.930;8.840;2023-04-07T07:52:05;76366.88;;;-145.72;100.00
15914;BME280;8055;51.930;8.840;2023-04-07T07:54:31;76356.53;;;-145.72;100.00
15914;BME280;8055;51.930;8.840;2023-04-07T07:56:56;76348.25;;;-145.72;100.00
15914;BME280;8055;51.930;8.840;2023-04-07T07:59:22;76337.91;;;-145.72;100.00
15914;BME280;8055;51.930;8.840;2023-04-07T08:01:47;76337.91;;;-145.72;100.00
15914;BME280;8055;51.930;8.840;2023-04-07T08:04:12;76327.56;;;-145.72;100.00
15914;BME280;8055;51.930;8.840;2023-04-07T08:06:38;76321.34;;;-145.72;100.00
15914;BME280;8055;51.930;8.840;2023-04-07T08:09:03;76311.00;;;-145.72;100.00
15914;BME280;8055;51.930;8.840;2023-04-07T08:11:30;76302.72;;;-145.72;100.00
15914;BME280;8055;51.930;8.840;2023-04-07T08:13:55;76290.31;;;-145.72;100.00
15914;BME280;8055;51.930;8.840;2023-04-07T08:16:21;76282.03;;;-145.72;100.00
15914;BME280;8055;51.930;8.840;2023-04-07T08:18:47;76279.97;;;-145.72;100.00
15914;BME280;8055;51.930;8.840;2023-04-07T08:21:13;76279.97;;;-145.72;100.00
15914;BME280;8055;51.930;8.840;2023-04-07T08:23:39;76267.53;;;-145.72;100.00
15914;BME280;8055;51.930;8.840;2023-04-07T08:26:04;76259.25;;;-145.72;100.00
15914;BME280;8055;51.930;8.840;2023-04-07T08:28:29;76255.13;;;-145.72;100.00
15914;BME280;8055;51.930;8.840;2023-04-07T08:30:55;76255.13;;;-145.72;100.00
15914;BME280;8055;51.930;8.840;2023-04-07T08:33:21;76244.78;;;-145.72;100.00
15914;BME280;8055;51.930;8.840;2023-04-07T08:35:46;76250.97;;;-145.72;100.00
15914;BME280;8055;51.930;8.840;2023-04-07T08:38:11;76261.34;;;-145.72;100.00
15914;BME280;8055;51.930;8.840;2023-04-07T08:40:37;76263.41;;;-145.72;100.00
15914;BME280;8055;51.930;8.840;2023-04-07T08:43:09;76261.34;;;-145.72;100.00
15914;BME280;8055;51.930;8.840;2023-04-07T08:45:38;76253.06;;;-145.72;100.00
15914;BME280;8055;51.930;8.840;2023-04-07T08:48:17;76253.06;;;-145.72;100.00
15914;BME280;8055;51.930;8.840;2023-04-07T08:50:48;76234.44;;;-145.72;100.00
15914;BME280;8055;51.930;8.840;2023-04-07T08:53:18;76232.34;;;-145.72;100.00
15914;BME280;8055;51.930;8.840;2023-04-07T08:55:47;76224.09;;;-145.72;100.00
15914;BME280;8055;51.930;8.840;2023-04-07T08:58:13;76205.44;;;-145.72;100.00
15914;BME280;8055;51.930;8.840;2023-04-07T09:00:42;76188.91;;;-145.72;100.00
15914;BME280;8055;51.930;8.840;2023-04-07T09:03:10;76184.75;;;-145.72;100.00
15914;BME280;8055;51.930;8.840;2023-04-07T09:05:36;76176.47;;;-145.72;100.00
15914;BME280;8055;51.930;8.840;2023-04-07T09:08:02;76174.41;;;-145.72;100.00
15914;BME280;8055;51.930;8.840;2023-04-07T09:10:28;76174.41;;;-145.72;100.00
15914;BME280;8055;51.930;8.840;2023-04-07T09:12:54;76176.47;;;-145.72;100.00
15914;BME280;8055;51.930;8.840;2023-04-07T09:15:20;76168.19;;;-145.72;100.00
15914;BME280;8055;51.930;8.840;2023-04-07T09:17:46;76164.06;;;-145.72;100.00
15914;BME280;8055;51.930;8.840;2023-04-07T09:20:12;76186.81;;;-145.72;100.00
15914;BME280;8055;51.930;8.840;2023-04-07T09:22:39;76186.81;;;-145.72;100.00
15914;BME280;8055;51.930;8.840;2023-04-07T09:25:16;76168.19;;;-145.72;100.00
15914;BME280;8055;51.930;8.840;2023-04-07T09:30:23;76155.78;;;-145.72;100.00
15914;BME280;8055;51.930;8.840;2023-04-07T09:32:48;76159.94;;;-145.72;100.00
15914;BME280;8055;51.930;8.840;2023-04-07T09:35:14;76151.66;;;-145.72;100.00
15914;BME280;8055;51.930;8.840;2023-04-07T09:37:39;76164.06;;;-145.72;100.00
15914;BME280;8055;51.930;8.840;2023-04-07T09:40:05;76149.56;;;-145.72;100.00
15914;BME280;8055;51.930;8.840;2023-04-07T09:42:31;76168.19;;;-145.72;100.00
15914;BME280;8055;51.930;8.840;2023-04-07T09:44:59;76159.94;;;-145.72;100.00
15914;BME280;8055;51.930;8.840;2023-04-07T09:47:30;76153.72;;;-145.72;100.00
15914;BME280;8055;51.930;8.840;2023-04-07T09:49:56;76139.22;;;-145.72;100.00
15914;BME280;8055;51.930;8.840;2023-04-07T09:52:25;76133.03;;;-145.72;100.00
15914;BME280;8055;51.930;8.840;2023-04-07T09:55:10;76130.94;;;-145.72;100.00
15914;BME280;8055;51.930;8.840;2023-04-07T09:57:36;76108.19;;;-145.72;100.00
15914;BME280;8055;51.930;8.840;2023-04-07T10:00:04;76106.13;;;-145.72;100.00
15914;BME280;8055;51.930;8.840;2023-04-07T10:02:30;76108.19;;;-145.72;100.00
15914;BME280;8055;51.930;8.840;2023-04-07T10:04:58;76116.47;;;-145.72;100.00
15914;BME280;8055;51.930;8.840;2023-04-07T10:07:24;76126.81;;;-145.72;100.00
15914;BME280;8055;51.930;8.840;2023-04-07T10:09:49;76106.13;;;-145.72;100.00
15914;BME280;8055;51.930;8.840;2023-04-07T10:12:15;76068.88;;;-145.72;100.00
15914;BME280;8055;51.930;8.840;2023-04-07T10:14:41;76035.75;;;-145.72;100.00
15914;BME280;8055;51.930;8.840;2023-04-07T10:17:11;76010.94;;;-145.72;100.00
15914;BME280;8055;51.930;8.840;2023-04-07T10:19:43;75969.53;;;-145.72;100.00
15914;BME280;8055;51.930;8.840;2023-04-07T10:22:10;75957.13;;;-145.72;100.00
15914;BME280;8055;51.930;8.840;2023-04-07T10:27:34;75936.44;;;-145.72;100.00
15914;BME280;8055;51.930;8.840;2023-04-07T10:30:02;75948.84;;;-145.72;100.00
15914;BME280;8055;51.930;8.840;2023-04-07T10:32:29;75932.28;;;-145.72;100.00
15914;BME280;8055;51.930;8.840;2023-04-07T10:34:56;75940.56;;;-145.72;100.00
15914;BME280;8055;51.930;8.840;2023-04-07T10:37:23;75946.78;;;-145.72;100.00
15914;BME280;8055;51.930;8.840;2023-04-07T10:39:51;75969.53;;;-145.72;100.00
15914;BME280;8055;51.930;8.840;2023-04-07T10:45:09;75940.56;;;-145.72;100.00
15914;BME280;8055;51.930;8.840;2023-04-07T10:50:24;75932.28;;;-145.72;100.00
15914;BME280;8055;51.930;8.840;2023-04-07T10:53:06;75911.59;;;-145.72;100.00
15914;BME280;8055;51.930;8.840;2023-04-07T10:55:38;75907.47;;;-145.72;100.00
15914;BME280;8055;51.930;8.840;2023-04-07T10:58:14;75886.78;;;-145.72;100.00
15914;BME280;8055;51.930;8.840;2023-04-07T11:00:41;75878.50;;;-145.72;100.00
15914;BME280;8055;51.930;8.840;2023-04-07T11:03:12;75859.88;;;-145.72;100.00
15914;BME280;8055;51.930;8.840;2023-04-07T11:05:42;75864.00;;;-145.72;92.40
15914;BME280;8055;51.930;8.840;2023-04-07T11:08:07;75820.56;;;-145.72;93.58
15914;BME280;8055;51.930;8.840;2023-04-07T11:10:34;75789.50;;;-145.72;97.53
15914;BME280;8055;51.930;8.840;2023-04-07T11:13:09;75781.25;;;-145.72;96.79
15914;BME280;8055;51.930;8.840;2023-04-07T11:15:35;75772.97;;;-145.72;95.27
15914;BME280;8055;51.930;8.840;2023-04-07T11:18:14;75760.53;;;-145.72;93.60
15914;BME280;8055;51.930;8.840;2023-04-07T11:21:00;75741.91;;;-145.72;88.06
15914;BME280;8055;51.930;8.840;2023-04-07T11:23:26;75762.63;;;-145.72;91.57
15914;BME280;8055;51.930;8.840;2023-04-07T11:25:58;75766.75;;;-145.72;87.58
15914;BME280;8055;51.930;8.840;2023-04-07T11:28:25;75752.28;;;-145.72;80.40
15914;BME280;8055;51.930;8.840;2023-04-07T11:30:52;75764.69;;;-145.72;82.74
15914;BME280;8055;51.930;8.840;2023-04-07T11:33:22;75741.91;;;-145.72;87.47
15914;BME280;8055;51.930;8.840;2023-04-07T11:35:50;75704.69;;;-145.72;87.13
15914;BME280;8055;51.930;8.840;2023-04-07T11:38:17;75671.56;;;-145.72;83.44
15914;BME280;8055;51.930;8.840;2023-04-07T11:40:42;75648.81;;;-145.72;80.99
15914;BME280;8055;51.930;8.840;2023-04-07T11:43:24;75601.22;;;-145.72;82.21
15914;BME280;8055;51.930;8.840;2023-04-07T11:48:32;75572.25;;;-145.72;74.68
15914;BME280;8055;51.930;8.840;2023-04-07T11:50:59;75576.38;;;-145.72;63.65
15914;BME280;8055;51.930;8.840;2023-04-07T11:53:29;75582.59;;;-145.72;67.31
15914;BME280;8055;51.930;8.840;2023-04-07T11:56:05;75572.25;;;-145.72;71.31
15914;BME280;8055;51.930;8.840;2023-04-07T11:58:32;75609.50;;;-145.72;65.27
15914;BME280;8055;51.930;8.840;2023-04-07T12:01:00;75626.06;;;-145.72;66.58
15914;BME280;8055;51.930;8.840;2023-04-07T12:03:29;75611.56;;;-145.72;67.10
15914;BME280;8055;51.930;8.840;2023-04-07T12:05:54;75634.31;;;-145.72;64.68
15914;BME280;8055;51.930;8.840;2023-04-07T12:08:20;75640.53;;;-145.72;64.62
15914;BME280;8055;51.930;8.840;2023-04-07T12:10:46;75607.44;;;-145.72;64.49
15914;BME280;8055;51.930;8.840;2023-04-07T12:13:12;75572.25;;;-145.72;60.67
15914;BME280;8055;51.930;8.840;2023-04-07T12:15:38;75539.16;;;-145.72;61.03
15914;BME280;8055;51.930;8.840;2023-04-07T12:18:04;75477.06;;;-145.72;64.67
15914;BME280;8055;51.930;8.840;2023-04-07T12:20:29;75454.31;;;-145.72;57.08
15914;BME280;8055;51.930;8.840;2023-04-07T12:22:55;75437.75;;;-145.72;58.07
15914;BME280;8055;51.930;8.840;2023-04-07T12:25:21;75456.38;;;-145.72;52.91
15914;BME280;8055;51.930;8.840;2023-04-07T12:27:46;75419.13;;;-145.72;56.01
15914;BME280;8055;51.930;8.840;2023-04-07T12:30:12;75437.75;;;-145.72;55.60
15914;BME280;8055;51.930;8.840;2023-04-07T12:32:38;75491.56;;;-145.72;55.72
15914;BME280;8055;51.930;8.840;2023-04-07T12:35:04;75547.41;;;-145.72;59.03
15914;BME280;8055;51.930;8.840;2023-04-07T12:37:30;75590.88;;;-145.72;58.42
15914;BME280;8055;51.930;8.840;2023-04-07T12:39:56;75584.66;;;-145.72;61.31
15914;BME280;8055;51.930;8.840;2023-04-07T12:42:21;75547.41;;;-145.72;58.58
15914;BME280;8055;51.930;8.840;2023-04-07T12:44:47;75499.84;;;-145.72;59.76
15914;BME280;8055;51.930;8.840;2023-04-07T12:47:12;75460.53;;;-145.72;55.38
15914;BME280;8055;51.930;8.840;2023-04-07T12:49:38;75429.47;;;-145.72;56.42
15914;BME280;8055;51.930;8.840;2023-04-07T12:52:03;75406.72;;;-145.72;53.95
15914;BME280;8055;51.930;8.840;2023-04-07T12:54:30;75417.06;;;-145.72;51.36
15914;BME280;8055;51.930;8.840;2023-04-07T12:56:56;75388.09;;;-145.72;50.80
15914;BME280;8055;51.930;8.840;2023-04-07T12:59:22;75346.72;;;-145.72;50.63
15914;BME280;8055;51.930;8.840;2023-04-07T13:01:48;75346.72;;;-145.72;52.12
15914;BME280;8055;51.930;8.840;2023-04-07T13:04:14;75346.72;;;-145.72;48.63